sensor_id;sensor_type;location;lat;lon;timestamp;P1;durP1;ratioP1;P2;durP2;ratioP2
67090;SDS011;54007;55.818;49.058;2023-12-04T06:28:06;12.15;;;4.08;;
67090;SDS011;54007;55.818;49.058;2023-12-04T06:30:32;10.20;;;4.33;;
67090;SDS011;54007;55.818;49.058;2023-12-04T06:32:58;14.73;;;4.62;;
67090;SDS011;54007;55.818;49.058;2023-12-04T06:35:24;12.63;;;4.87;;
67090;SDS011;54007;55.818;49.058;2023-12-04T06:37:49;14.80;;;5.45;;
67090;SDS011;54007;55.818;49.058;2023-12-04T06:40:15;9.78;;;4.60;;
67090;SDS011;54007;55.818;49.058;2023-12-04T06:42:41;10.88;;;5.35;;
67090;SDS011;54007;55.818;49.058;2023-12-04T06:45:07;12.70;;;6.40;;
67090;SDS011;54007;55.818;49.058;2023-12-04T06:47:33;13.58;;;6.97;;
67090;SDS011;54007;55.818;49.058;2023-12-04T06:49:59;12.82;;;4.60;;
67090;SDS011;54007;55.818;49.058;2023-12-04T06:52:25;9.10;;;3.90;;
67090;SDS011;54007;55.818;49.058;2023-12-04T06:54:51;8.15;;;3.00;;
67090;SDS011;54007;55.818;49.058;2023-12-04T06:57:17;7.07;;;3.00;;
67090;SDS011;54007;55.818;49.058;2023-12-04T06:59:42;6.40;;;2.58;;
67090;SDS011;54007;55.818;49.058;2023-12-04T07:02:08;9.60;;;3.40;;
67090;SDS011;54007;55.818;49.058;2023-12-04T07:04:34;14.23;;;3.63;;
67090;SDS011;54007;55.818;49.058;2023-12-04T07:07:00;5.67;;;2.92;;
67090;SDS011;54007;55.818;49.058;2023-12-04T07:09:26;5.33;;;2.12;;
67090;SDS011;54007;55.818;49.058;2023-12-04T07:11:52;8.03;;;2.30;;
67090;SDS011;54007;55.818;49.058;2023-12-04T07:14:18;6.92;;;3.00;;
67090;SDS011;54007;55.818;49.058;2023-12-04T07:16:44;14.30;;;3.20;;
67090;SDS011;54007;55.818;49.058;2023-12-04T07:19:09;12.05;;;4.25;;
67090;SDS011;54007;55.818;49.058;2023-12-04T07:21:36;17.02;;;5.95;;
67090;SDS011;54007;55.818;49.058;2023-12-04T07:24:01;11.03;;;4.12;;
67090;SDS011;54007;55.818;49.058;2023-12-04T07:26:27;21.75;;;7.58;;
67090;SDS011;54007;55.818;49.058;2023-12-04T07:28:53;10.03;;;3.37;;
67090;SDS011;54007;55.818;49.058;2023-12-04T07:31:18;19.92;;;7.78;;
67090;SDS011;54007;55.818;49.058;2023-12-04T07:33:44;10.00;;;3.40;;
67090;SDS011;54007;55.818;49.058;2023-12-04T07:36:10;13.62;;;4.70;;
67090;SDS011;54007;55.818;49.058;2023-12-04T07:38:36;7.80;;;2.90;;
67090;SDS011;54007;55.818;49.058;2023-12-04T07:41:02;7.37;;;2.90;;
67090;SDS011;54007;55.818;49.058;2023-12-04T10:15:17;9.00;;;3.80;;
67090;SDS011;54007;55.818;49.058;2023-12-04T10:17:44;10.88;;;3.70;;
67090;SDS011;54007;55.818;49.058;2023-12-04T10:20:10;10.10;;;4.45;;
67090;SDS011;54007;55.818;49.058;2023-12-04T10:22:54;6.77;;;3.30;;
67090;SDS011;54007;55.818;49.058;2023-12-04T10:25:19;10.50;;;3.70;;
67090;SDS011;54007;55.818;49.058;2023-12-04T10:27:45;8.40;;;3.95;;
67090;SDS011;54007;55.818;49.058;2023-12-04T10:30:26;6.90;;;3.12;;
67090;SDS011;54007;55.818;49.058;2023-12-04T10:32:58;7.75;;;3.65;;
67090;SDS011;54007;55.818;49.058;2023-12-04T10:35:23;7.87;;;3.55;;
67090;SDS011;54007;55.818;49.058;2023-12-04T10:37:53;8.28;;;3.80;;
67090;SDS011;54007;55.818;49.058;2023-12-04T10:40:22;7.40;;;3.60;;
67090;SDS011;54007;55.818;49.058;2023-12-04T10:42:41;7.37;;;3.22;;
67090;SDS011;54007;55.818;49.058;2023-12-04T10:45:07;8.35;;;3.87;;
67090;SDS011;54007;55.818;49.058;2023-12-04T10:47:33;6.92;;;3.12;;
67090;SDS011;54007;55.818;49.058;2023-12-04T10:49:59;10.80;;;3.62;;
67090;SDS011;54007;55.818;49.058;2023-12-04T10:52:24;7.15;;;3.30;;
67090;SDS011;54007;55.818;49.058;2023-12-04T10:54:53;7.95;;;3.62;;
67090;SDS011;54007;55.818;49.058;2023-12-04T10:57:21;6.75;;;2.87;;
67090;SDS011;54007;55.818;49.058;2023-12-04T10:59:42;9.90;;;2.67;;
67090;SDS011;54007;55.818;49.058;2023-12-04T11:02:08;6.63;;;3.00;;
67090;SDS011;54007;55.818;49.058;2023-12-04T11:04:35;6.35;;;2.77;;
67090;SDS011;54007;55.818;49.058;2023-12-04T11:07:00;7.00;;;2.70;;
67090;SDS011;54007;55.818;49.058;2023-12-04T11:09:26;6.37;;;2.60;;
67090;SDS011;54007;55.818;49.058;2023-12-04T11:11:53;5.97;;;2.50;;
67090;SDS011;54007;55.818;49.058;2023-12-04T11:14:18;6.17;;;2.70;;
67090;SDS011;54007;55.818;49.058;2023-12-04T11:16:47;7.15;;;2.42;;
67090;SDS011;54007;55.818;49.058;2023-12-04T11:21:38;5.40;;;2.37;;
67090;SDS011;54007;55.818;49.058;2023-12-04T11:24:04;6.80;;;2.80;;
67090;SDS011;54007;55.818;49.058;2023-12-04T11:26:30;6.67;;;2.80;;
67090;SDS011;54007;55.818;49.058;2023-12-04T11:28:56;6.55;;;2.77;;
67090;SDS011;54007;55.818;49.058;2023-12-04T11:31:22;8.08;;;3.08;;
67090;SDS011;54007;55.818;49.058;2023-12-04T11:33:47;7.57;;;2.90;;
67090;SDS011;54007;55.818;49.058;2023-12-04T11:36:13;6.80;;;2.70;;
67090;SDS011;54007;55.818;49.058;2023-12-04T11:38:44;5.28;;;2.12;;
67090;SDS011;54007;55.818;49.058;2023-12-04T11:41:15;7.87;;;3.20;;
67090;SDS011;54007;55.818;49.058;2023-12-04T11:43:40;7.22;;;2.90;;
67090;SDS011;54007;55.818;49.058;2023-12-04T11:46:11;7.03;;;2.60;;
67090;SDS011;54007;55.818;49.058;2023-12-04T11:48:36;7.47;;;2.97;;
67090;SDS011;54007;55.818;49.058;2023-12-04T11:51:00;8.40;;;2.70;;
67090;SDS011;54007;55.818;49.058;2023-12-04T11:53:26;7.42;;;3.40;;
67090;SDS011;54007;55.818;49.058;2023-12-04T11:55:52;9.60;;;3.13;;
67090;SDS011;54007;55.818;49.058;2023-12-04T11:58:18;11.38;;;3.35;;
67090;SDS011;54007;55.818;49.058;2023-12-04T12:00:43;6.90;;;2.90;;
67090;SDS011;54007;55.818;49.058;2023-12-04T12:03:09;7.15;;;3.15;;
67090;SDS011;54007;55.818;49.058;2023-12-04T12:05:36;8.13;;;3.20;;
67090;SDS011;54007;55.818;49.058;2023-12-04T12:08:05;7.47;;;2.87;;
67090;SDS011;54007;55.818;49.058;2023-12-04T12:10:30;7.30;;;3.05;;
67090;SDS011;54007;55.818;49.058;2023-12-04T12:12:56;12.35;;;2.95;;
67090;SDS011;54007;55.818;49.058;2023-12-04T12:15:24;8.77;;;3.40;;
67090;SDS011;54007;55.818;49.058;2023-12-04T12:17:50;7.05;;;2.90;;
67090;SDS011;54007;55.818;49.058;2023-12-04T12:20:16;7.80;;;3.20;;
67090;SDS011;54007;55.818;49.058;2023-12-04T12:22:42;7.70;;;3.30;;
67090;SDS011;54007;55.818;49.058;2023-12-04T12:25:11;8.00;;;3.37;;
67090;SDS011;54007;55.818;49.058;2023-12-04T12:27:37;9.13;;;3.10;;
67090;SDS011;54007;55.818;49.058;2023-12-04T12:30:02;10.33;;;3.53;;
67090;SDS011;54007;55.818;49.058;2023-12-04T12:32:28;8.78;;;3.60;;
67090;SDS011;54007;55.818;49.058;2023-12-04T12:34:54;8.78;;;3.10;;
67090;SDS011;54007;55.818;49.058;2023-12-04T12:37:24;7.03;;;3.27;;
67090;SDS011;54007;55.818;49.058;2023-12-04T12:39:50;9.78;;;3.60;;
67090;SDS011;54007;55.818;49.058;2023-12-04T12:42:24;8.10;;;3.27;;
67090;SDS011;54007;55.818;49.058;2023-12-04T12:44:47;8.55;;;3.60;;
67090;SDS011;54007;55.818;49.058;2023-12-04T12:47:14;11.35;;;4.12;;
67090;SDS011;54007;55.818;49.058;2023-12-04T12:49:39;8.55;;;3.77;;
67090;SDS011;54007;55.818;49.058;2023-12-04T12:52:05;12.18;;;4.62;;
67090;SDS011;54007;55.818;49.058;2023-12-04T12:54:30;10.32;;;3.98;;
67090;SDS011;54007;55.818;49.058;2023-12-04T12:56:56;9.10;;;3.97;;
67090;SDS011;54007;55.818;49.058;2023-12-04T12:59:22;12.98;;;3.85;;
67090;SDS011;54007;55.818;49.058;2023-12-04T13:01:48;11.33;;;3.95;;
67090;SDS011;54007;55.818;49.058;2023-12-04T13:04:14;11.35;;;4.15;;
67090;SDS011;54007;55.818;49.058;2023-12-04T13:06:40;9.65;;;3.72;;
67090;SDS011;54007;55.818;49.058;2023-12-04T13:09:05;9.23;;;3.83;;
67090;SDS011;54007;55.818;49.058;2023-12-04T13:11:32;9.78;;;4.20;;
67090;SDS011;54007;55.818;49.058;2023-12-04T13:13:57;11.70;;;4.22;;
67090;SDS011;54007;55.818;49.058;2023-12-04T13:16:23;10.90;;;4.07;;
67090;SDS011;54007;55.818;49.058;2023-12-04T13:18:49;11.63;;;4.72;;
67090;SDS011;54007;55.818;49.058;2023-12-04T13:21:15;12.70;;;4.00;;
67090;SDS011;54007;55.818;49.058;2023-12-04T13:23:41;10.20;;;3.95;;
67090;SDS011;54007;55.818;49.058;2023-12-04T13:26:07;8.68;;;3.70;;
67090;SDS011;54007;55.818;49.058;2023-12-04T13:28:32;10.80;;;3.93;;
67090;SDS011;54007;55.818;49.058;2023-12-04T13:31:14;9.83;;;4.10;;
67090;SDS011;54007;55.818;49.058;2023-12-04T13:33:40;10.75;;;3.95;;
67090;SDS011;54007;55.818;49.058;2023-12-04T13:36:06;10.57;;;3.97;;
67090;SDS011;54007;55.818;49.058;2023-12-04T13:38:31;10.80;;;4.03;;
67090;SDS011;54007;55.818;49.058;2023-12-04T13:40:59;10.30;;;3.98;;
67090;SDS011;54007;55.818;49.058;2023-12-04T13:43:26;13.03;;;4.65;;
67090;SDS011;54007;55.818;49.058;2023-12-04T13:46:10;13.35;;;4.37;;
67090;SDS011;54007;55.818;49.058;2023-12-04T13:48:36;10.55;;;4.12;;
67090;SDS011;54007;55.818;49.058;2023-12-04T13:51:02;10.23;;;4.30;;
67090;SDS011;54007;55.818;49.058;2023-12-04T13:53:28;11.12;;;4.45;;
67090;SDS011;54007;55.818;49.058;2023-12-04T13:55:57;12.20;;;4.20;;
67090;SDS011;54007;55.818;49.058;2023-12-04T13:58:26;11.85;;;4.47;;
67090;SDS011;54007;55.818;49.058;2023-12-04T14:01:04;10.78;;;4.50;;
67090;SDS011;54007;55.818;49.058;2023-12-04T14:03:30;9.28;;;3.87;;
67090;SDS011;54007;55.818;49.058;2023-12-04T14:05:56;12.50;;;4.40;;
67090;SDS011;54007;55.818;49.058;2023-12-04T14:08:21;12.10;;;4.30;;
67090;SDS011;54007;55.818;49.058;2023-12-04T14:10:47;13.05;;;4.78;;
67090;SDS011;54007;55.818;49.058;2023-12-04T14:13:13;12.68;;;4.42;;
67090;SDS011;54007;55.818;49.058;2023-12-04T14:15:39;12.80;;;4.42;;
67090;SDS011;54007;55.818;49.058;2023-12-04T14:18:05;12.43;;;5.10;;
67090;SDS011;54007;55.818;49.058;2023-12-04T14:20:31;12.05;;;4.75;;
67090;SDS011;54007;55.818;49.058;2023-12-04T14:22:56;12.05;;;4.65;;
67090;SDS011;54007;55.818;49.058;2023-12-04T14:25:22;11.65;;;4.78;;
67090;SDS011;54007;55.818;49.058;2023-12-04T14:27:48;12.35;;;5.17;;
67090;SDS011;54007;55.818;49.058;2023-12-04T14:30:14;11.43;;;4.73;;
67090;SDS011;54007;55.818;49.058;2023-12-04T14:32:40;14.03;;;5.58;;
67090;SDS011;54007;55.818;49.058;2023-12-04T14:35:06;12.10;;;5.12;;
67090;SDS011;54007;55.818;49.058;2023-12-04T14:37:32;21.82;;;4.58;;
67090;SDS011;54007;55.818;49.058;2023-12-04T14:39:57;13.62;;;5.20;;
67090;SDS011;54007;55.818;49.058;2023-12-04T14:42:23;12.07;;;4.50;;
67090;SDS011;54007;55.818;49.058;2023-12-04T14:44:49;14.38;;;5.20;;
67090;SDS011;54007;55.818;49.058;2023-12-04T14:47:15;13.08;;;5.28;;
67090;SDS011;54007;55.818;49.058;2023-12-04T14:49:41;12.53;;;4.42;;
67090;SDS011;54007;55.818;49.058;2023-12-04T14:52:07;14.38;;;5.15;;
67090;SDS011;54007;55.818;49.058;2023-12-04T14:54:33;11.90;;;4.60;;
67090;SDS011;54007;55.818;49.058;2023-12-04T14:57:19;16.02;;;5.17;;
67090;SDS011;54007;55.818;49.058;2023-12-04T14:59:45;15.55;;;5.08;;
67090;SDS011;54007;55.818;49.058;2023-12-04T15:02:23;14.07;;;5.33;;
67090;SDS011;54007;55.818;49.058;2023-12-04T15:05:07;13.45;;;4.92;;
67090;SDS011;54007;55.818;49.058;2023-12-04T15:07:51;11.43;;;4.55;;
67090;SDS011;54007;55.818;49.058;2023-12-04T15:10:29;14.85;;;5.03;;
67090;SDS011;54007;55.818;49.058;2023-12-04T15:13:13;12.70;;;4.83;;
67090;SDS011;54007;55.818;49.058;2023-12-04T15:15:54;14.90;;;5.15;;
67090;SDS011;54007;55.818;49.058;2023-12-04T15:18:29;11.00;;;4.60;;
67090;SDS011;54007;55.818;49.058;2023-12-04T15:21:04;11.57;;;4.30;;
67090;SDS011;54007;55.818;49.058;2023-12-04T15:23:29;14.07;;;4.95;;
67090;SDS011;54007;55.818;49.058;2023-12-04T15:25:55;13.30;;;5.22;;
67090;SDS011;54007;55.818;49.058;2023-12-04T15:28:21;13.67;;;4.83;;
67090;SDS011;54007;55.818;49.058;2023-12-04T15:30:47;14.25;;;5.80;;
67090;SDS011;54007;55.818;49.058;2023-12-04T15:33:13;12.58;;;5.47;;
67090;SDS011;54007;55.818;49.058;2023-12-04T15:35:39;17.92;;;6.22;;
67090;SDS011;54007;55.818;49.058;2023-12-04T15:38:05;17.65;;;6.40;;
67090;SDS011;54007;55.818;49.058;2023-12-04T15:40:30;15.13;;;6.60;;
67090;SDS011;54007;55.818;49.058;2023-12-04T15:42:56;19.12;;;7.25;;
67090;SDS011;54007;55.818;49.058;2023-12-04T15:45:22;14.58;;;5.53;;
67090;SDS011;54007;55.818;49.058;2023-12-04T15:47:48;13.50;;;4.93;;
67090;SDS011;54007;55.818;49.058;2023-12-04T15:50:14;15.95;;;5.67;;
67090;SDS011;54007;55.818;49.058;2023-12-04T15:52:46;18.48;;;6.20;;
67090;SDS011;54007;55.818;49.058;2023-12-04T15:55:11;14.28;;;5.92;;
67090;SDS011;54007;55.818;49.058;2023-12-04T15:57:37;14.95;;;5.53;;
67090;SDS011;54007;55.818;49.058;2023-12-04T16:00:03;15.80;;;6.13;;
67090;SDS011;54007;55.818;49.058;2023-12-04T16:02:29;16.80;;;5.70;;
67090;SDS011;54007;55.818;49.058;2023-12-04T16:04:55;14.47;;;5.60;;
67090;SDS011;54007;55.818;49.058;2023-12-04T16:07:21;14.03;;;5.67;;
67090;SDS011;54007;55.818;49.058;2023-12-04T16:09:46;16.65;;;6.08;;
67090;SDS011;54007;55.818;49.058;2023-12-04T16:12:12;15.30;;;5.80;;
67090;SDS011;54007;55.818;49.058;2023-12-04T16:14:38;16.15;;;5.80;;
67090;SDS011;54007;55.818;49.058;2023-12-04T16:17:04;15.45;;;5.80;;
67090;SDS011;54007;55.818;49.058;2023-12-04T16:19:30;17.43;;;5.67;;
67090;SDS011;54007;55.818;49.058;2023-12-04T16:21:56;14.65;;;5.28;;
67090;SDS011;54007;55.818;49.058;2023-12-04T16:24:22;13.17;;;5.60;;
67090;SDS011;54007;55.818;49.058;2023-12-04T16:26:47;16.02;;;5.95;;
67090;SDS011;54007;55.818;49.058;2023-12-04T16:29:13;14.28;;;5.12;;
67090;SDS011;54007;55.818;49.058;2023-12-04T16:31:39;15.00;;;5.37;;
67090;SDS011;54007;55.818;49.058;2023-12-04T16:34:05;15.03;;;5.72;;
67090;SDS011;54007;55.818;49.058;2023-12-04T16:36:31;15.10;;;5.62;;
67090;SDS011;54007;55.818;49.058;2023-12-04T16:38:57;13.70;;;5.15;;
67090;SDS011;54007;55.818;49.058;2023-12-04T16:41:23;13.90;;;5.12;;
67090;SDS011;54007;55.818;49.058;2023-12-04T16:43:48;13.47;;;5.43;;
67090;SDS011;54007;55.818;49.058;2023-12-04T16:46:14;13.68;;;5.58;;
67090;SDS011;54007;55.818;49.058;2023-12-04T16:48:40;14.55;;;5.10;;
67090;SDS011;54007;55.818;49.058;2023-12-04T16:51:06;13.78;;;5.62;;
67090;SDS011;54007;55.818;49.058;2023-12-04T16:53:32;12.82;;;5.25;;
67090;SDS011;54007;55.818;49.058;2023-12-04T16:55:58;12.90;;;5.20;;
67090;SDS011;54007;55.818;49.058;2023-12-04T16:58:23;19.65;;;5.17;;
67090;SDS011;54007;55.818;49.058;2023-12-04T17:00:49;17.30;;;5.60;;
67090;SDS011;54007;55.818;49.058;2023-12-04T17:03:15;17.62;;;5.40;;
67090;SDS011;54007;55.818;49.058;2023-12-04T17:05:41;12.20;;;5.00;;
67090;SDS011;54007;55.818;49.058;2023-12-04T17:08:07;16.50;;;5.23;;
67090;SDS011;54007;55.818;49.058;2023-12-04T17:10:33;13.03;;;5.05;;
67090;SDS011;54007;55.818;49.058;2023-12-04T17:12:58;14.58;;;5.35;;
67090;SDS011;54007;55.818;49.058;2023-12-04T17:15:24;10.75;;;4.70;;
67090;SDS011;54007;55.818;49.058;2023-12-04T17:17:50;13.75;;;4.87;;
67090;SDS011;54007;55.818;49.058;2023-12-04T17:20:16;12.03;;;4.67;;
67090;SDS011;54007;55.818;49.058;2023-12-04T17:22:48;15.28;;;5.80;;
67090;SDS011;54007;55.818;49.058;2023-12-04T17:25:14;16.20;;;5.70;;
67090;SDS011;54007;55.818;49.058;2023-12-04T17:27:40;13.47;;;5.50;;
67090;SDS011;54007;55.818;49.058;2023-12-04T17:30:06;13.08;;;5.12;;
67090;SDS011;54007;55.818;49.058;2023-12-04T17:32:32;14.95;;;5.35;;
67090;SDS011;54007;55.818;49.058;2023-12-04T17:34:58;15.55;;;5.55;;
67090;SDS011;54007;55.818;49.058;2023-12-04T17:37:23;15.05;;;5.80;;
67090;SDS011;54007;55.818;49.058;2023-12-04T17:39:49;16.17;;;5.53;;
67090;SDS011;54007;55.818;49.058;2023-12-04T17:42:15;12.75;;;4.72;;
67090;SDS011;54007;55.818;49.058;2023-12-04T17:44:41;18.27;;;5.45;;
67090;SDS011;54007;55.818;49.058;2023-12-04T17:47:08;15.07;;;5.43;;
67090;SDS011;54007;55.818;49.058;2023-12-04T17:49:34;11.85;;;4.72;;
67090;SDS011;54007;55.818;49.058;2023-12-04T17:52:00;15.55;;;6.03;;
67090;SDS011;54007;55.818;49.058;2023-12-04T17:54:26;15.18;;;5.45;;
67090;SDS011;54007;55.818;49.058;2023-12-04T17:56:51;13.25;;;4.90;;
67090;SDS011;54007;55.818;49.058;2023-12-04T17:59:17;12.93;;;5.00;;
67090;SDS011;54007;55.818;49.058;2023-12-04T19:19:31;12.98;;;4.72;;
67090;SDS011;54007;55.818;49.058;2023-12-04T19:21:56;14.83;;;5.13;;
67090;SDS011;54007;55.818;49.058;2023-12-04T19:24:22;10.85;;;4.40;;
67090;SDS011;54007;55.818;49.058;2023-12-04T19:26:48;12.95;;;4.87;;
67090;SDS011;54007;55.818;49.058;2023-12-04T19:29:14;19.10;;;4.93;;
67090;SDS011;54007;55.818;49.058;2023-12-04T19:31:40;15.13;;;4.58;;
67090;SDS011;54007;55.818;49.058;2023-12-04T19:34:06;14.47;;;5.15;;
67090;SDS011;54007;55.818;49.058;2023-12-04T19:36:32;15.53;;;4.90;;
67090;SDS011;54007;55.818;49.058;2023-12-04T19:38:58;11.73;;;4.83;;
67090;SDS011;54007;55.818;49.058;2023-12-04T19:41:32;14.50;;;5.23;;
67090;SDS011;54007;55.818;49.058;2023-12-04T19:43:56;11.83;;;4.83;;
67090;SDS011;54007;55.818;49.058;2023-12-04T19:46:21;11.38;;;4.58;;
67090;SDS011;54007;55.818;49.058;2023-12-04T19:48:47;13.43;;;4.97;;
67090;SDS011;54007;55.818;49.058;2023-12-04T19:51:13;12.23;;;4.37;;
67090;SDS011;54007;55.818;49.058;2023-12-04T19:53:39;12.07;;;4.70;;
67090;SDS011;54007;55.818;49.058;2023-12-04T19:56:11;15.03;;;5.20;;
67090;SDS011;54007;55.818;49.058;2023-12-04T19:58:37;11.53;;;4.45;;
67090;SDS011;54007;55.818;49.058;2023-12-04T20:01:03;15.88;;;5.05;;
67090;SDS011;54007;55.818;49.058;2023-12-04T20:03:28;12.53;;;4.97;;
67090;SDS011;54007;55.818;49.058;2023-12-04T20:05:54;10.55;;;4.67;;
67090;SDS011;54007;55.818;49.058;2023-12-04T20:08:20;12.23;;;4.60;;
67090;SDS011;54007;55.818;49.058;2023-12-04T20:10:46;12.23;;;4.65;;
67090;SDS011;54007;55.818;49.058;2023-12-04T20:13:12;11.57;;;4.85;;
67090;SDS011;54007;55.818;49.058;2023-12-04T20:15:38;13.00;;;4.17;;
67090;SDS011;54007;55.818;49.058;2023-12-04T20:18:04;12.15;;;4.12;;
67090;SDS011;54007;55.818;49.058;2023-12-04T20:20:30;12.05;;;4.65;;
